createdAt,value
2022-08-24T00:00:41.445Z,97627.03
2022-08-24T00:03:12.058Z,97628.06
2022-08-24T00:05:40.509Z,97641.50
2022-08-24T00:08:08.868Z,97628.06
2022-08-24T00:10:36.755Z,97633.31
2022-08-24T00:13:04.764Z,97634.56
2022-08-24T00:15:34.089Z,97633.97
2022-08-24T00:18:02.190Z,97636.69
2022-08-24T00:20:30.268Z,97631.88
2022-08-24T00:22:59.207Z,97639.03
2022-08-24T00:25:27.619Z,97628.53
2022-08-24T00:27:55.571Z,97631.47
2022-08-24T00:30:23.426Z,97634.00
2022-08-24T00:32:53.838Z,97630.84
2022-08-24T00:35:22.099Z,97626.44
2022-08-24T00:37:50.255Z,97629.75
2022-08-24T00:40:26.832Z,97630.41
2022-08-24T00:42:55.291Z,97638.06
2022-08-24T00:45:24.670Z,97628.41
2022-08-24T00:47:57.237Z,97627.16
2022-08-24T00:50:27.002Z,97630.28
2022-08-24T00:52:58.039Z,97629.38
2022-08-24T00:55:30.898Z,97632.28
2022-08-24T00:58:00.509Z,97623.47
2022-08-24T01:00:31.612Z,97626.81
2022-08-24T01:03:04.452Z,97628.22
2022-08-24T01:05:32.692Z,97624.84
2022-08-24T01:08:01.078Z,97625.50
2022-08-24T01:10:30.365Z,97624.06
2022-08-24T01:13:01.381Z,97632.06
2022-08-24T01:15:29.794Z,97627.88
2022-08-24T01:18:15.477Z,97625.34
2022-08-24T01:20:45.864Z,97623.53
2022-08-24T01:23:15.894Z,97618.25
2022-08-24T01:25:45.695Z,97619.50
2022-08-24T01:28:16.738Z,97618.91
2022-08-24T01:30:49.770Z,97619.69
2022-08-24T01:33:24.097Z,97617.41
2022-08-24T01:35:52.048Z,97627.03
2022-08-24T01:38:20.016Z,97620.69
2022-08-24T01:40:53.543Z,97623.66
2022-08-24T01:43:22.639Z,97623.41
2022-08-24T01:45:51.034Z,97616.53
2022-08-24T01:48:22.935Z,97629.09
2022-08-24T01:50:52.745Z,97621.16
2022-08-24T01:53:20.980Z,97621.56
2022-08-24T01:55:50.289Z,97625.75
2022-08-24T01:58:18.623Z,97623.81
2022-08-24T02:00:46.513Z,97627.81
2022-08-24T02:03:14.494Z,97631.44
2022-08-24T02:05:42.569Z,97626.84
2022-08-24T02:08:10.549Z,97627.09
2022-08-24T02:10:38.566Z,97630.69
2022-08-24T02:13:07.889Z,97628.16
2022-08-24T02:15:40.341Z,97628.53
2022-08-24T02:18:15.410Z,97629.84
2022-08-24T02:20:43.740Z,97634.63
2022-08-24T02:23:11.728Z,97637.72
2022-08-24T02:25:39.687Z,97631.88
2022-08-24T02:28:09.453Z,97638.78
2022-08-24T02:30:37.318Z,97637.50
2022-08-24T02:33:05.390Z,97641.69
2022-08-24T02:35:33.343Z,97636.66
2022-08-24T02:38:01.382Z,97642.50
2022-08-24T02:40:29.405Z,97629.91
2022-08-24T02:42:57.486Z,97637.25
2022-08-24T02:45:26.745Z,97629.59
2022-08-24T02:47:54.923Z,97630.53
2022-08-24T02:50:23.685Z,97637.84
2022-08-24T02:52:51.620Z,97637.19
2022-08-24T02:55:20.342Z,97634.84
2022-08-24T02:57:49.004Z,97632.97
2022-08-24T03:00:19.318Z,97635.50
2022-08-24T03:02:48.662Z,97632.97
2022-08-24T03:05:17.278Z,97625.25
2022-08-24T03:07:45.188Z,97630.25
2022-08-24T03:10:13.158Z,97631.28
2022-08-24T03:12:41.283Z,97635.47
2022-08-24T03:15:10.822Z,97639.69
2022-08-24T03:17:39.900Z,97641.34
2022-08-24T03:20:12.460Z,97650.78
2022-08-24T03:22:40.550Z,97637.06
2022-08-24T03:25:09.161Z,97635.19
2022-08-24T03:27:37.799Z,97647.53
2022-08-24T03:30:06.378Z,97640.88
2022-08-24T03:32:35.478Z,97640.41
2022-08-24T03:35:04.490Z,97640.53
2022-08-24T03:37:33.935Z,97631.44
2022-08-24T03:40:01.946Z,97631.31
2022-08-24T03:42:29.877Z,97632.41
2022-08-24T03:44:59.230Z,97630.34
2022-08-24T03:47:27.285Z,97633.06
2022-08-24T03:49:56.405Z,97638.25
2022-08-24T03:52:24.718Z,97626.22
2022-08-24T03:54:55.245Z,97625.56
2022-08-24T03:57:23.234Z,97632.47
2022-08-24T03:59:51.286Z,97631.53
2022-08-24T04:02:19.196Z,97628.81
2022-08-24T04:04:47.481Z,97629.75
2022-08-24T04:07:15.380Z,97634.78
2022-08-24T04:09:43.333Z,97628.25
2022-08-24T04:12:12.570Z,97633.94
2022-08-24T04:14:40.749Z,97632.28
2022-08-24T04:17:08.774Z,97636.66
2022-08-24T04:19:36.679Z,97642.75
2022-08-24T04:22:04.656Z,97633.50
2022-08-24T04:24:32.687Z,97639.09
2022-08-24T04:27:00.614Z,97644.41
2022-08-24T04:29:29.878Z,97641.41
2022-08-24T04:31:59.025Z,97646.00
2022-08-24T04:34:27.180Z,97647.88
2022-08-24T04:36:55.307Z,97644.53
2022-08-24T04:39:23.575Z,97642.72
2022-08-24T04:41:51.714Z,97641.63
2022-08-24T04:44:20.175Z,97644.44
2022-08-24T04:46:49.485Z,97652.69
2022-08-24T04:49:17.369Z,97648.94
2022-08-24T04:51:45.240Z,97647.63
2022-08-24T04:54:13.213Z,97646.22
2022-08-24T04:56:41.166Z,97650.34
2022-08-24T04:59:09.196Z,97647.25
2022-08-24T05:01:37.180Z,97642.72
2022-08-24T05:04:06.644Z,97650.66
2022-08-24T05:06:34.860Z,97646.41
2022-08-24T05:09:03.636Z,97648.53
2022-08-24T05:11:31.652Z,97650.09
2022-08-24T05:14:00.113Z,97649.03
2022-08-24T05:16:28.840Z,97650.53
2022-08-24T05:19:03.122Z,97654.06
2022-08-24T05:21:32.366Z,97649.06
2022-08-24T05:24:00.294Z,97650.81
2022-08-24T05:26:29.098Z,97657.72
2022-08-24T05:28:57.312Z,97658.16
2022-08-24T05:31:27.738Z,97655.19
2022-08-24T05:33:55.753Z,97656.69
2022-08-24T05:36:25.543Z,97670.88
2022-08-24T05:38:55.815Z,97672.56
2022-08-24T05:41:24.453Z,97676.53
2022-08-24T05:43:52.590Z,97671.91
2022-08-24T05:46:20.779Z,97675.34
2022-08-24T05:48:52.486Z,97680.94
2022-08-24T05:51:20.878Z,97678.41
2022-08-24T05:53:48.820Z,97692.25
2022-08-24T05:56:18.835Z,97689.50
2022-08-24T05:58:46.942Z,97690.69
2022-08-24T06:01:15.941Z,97692.47
2022-08-24T06:03:45.859Z,97690.78
2022-08-24T06:06:14.024Z,97694.16
2022-08-24T06:08:44.430Z,97696.03
2022-08-24T06:11:12.423Z,97698.78
2022-08-24T06:13:41.731Z,97697.25
2022-08-24T06:16:21.226Z,97696.47
2022-08-24T06:18:50.800Z,97697.31
2022-08-24T06:21:19.722Z,97698.41
2022-08-24T06:23:48.891Z,97699.13
2022-08-24T06:26:34.058Z,97706.25
2022-08-24T06:29:03.551Z,97705.25
2022-08-24T06:31:39.331Z,97711.59
2022-08-24T06:34:07.802Z,97704.47
2022-08-24T06:36:35.726Z,97712.34
2022-08-24T06:39:03.663Z,97709.47
2022-08-24T06:41:34.295Z,97707.06
2022-08-24T06:44:04.377Z,97710.97
2022-08-24T06:46:33.618Z,97709.91
2022-08-24T06:49:01.583Z,97712.72
2022-08-24T06:51:29.613Z,97709.53
2022-08-24T06:53:57.634Z,97709.91
2022-08-24T06:56:26.051Z,97712.28
2022-08-24T06:58:55.563Z,97711.50
2022-08-24T07:01:25.676Z,97711.47
2022-08-24T07:03:53.850Z,97712.94
2022-08-24T07:06:22.253Z,97716.97
2022-08-24T07:08:50.203Z,97723.09
2022-08-24T07:11:18.807Z,97722.22
2022-08-24T07:13:47.536Z,97721.00
2022-08-24T07:16:15.848Z,97722.34
2022-08-24T07:18:49.351Z,97716.88
2022-08-24T07:21:19.705Z,97721.28
2022-08-24T07:23:48.182Z,97724.88
2022-08-24T07:26:21.906Z,97726.13
2022-08-24T07:28:50.443Z,97723.19
2022-08-24T07:31:21.250Z,97731.59
2022-08-24T07:33:50.745Z,97737.91
2022-08-24T07:36:22.473Z,97734.97
2022-08-24T07:38:52.409Z,97731.59
2022-08-24T07:41:40.380Z,97729.91
2022-08-24T07:44:09.159Z,97729.50
2022-08-24T07:46:37.766Z,97733.03
2022-08-24T07:49:12.639Z,97737.06
2022-08-24T07:51:48.607Z,97738.47
2022-08-24T07:54:17.283Z,97740.31
2022-08-24T07:56:45.161Z,97742.88
2022-08-24T07:59:13.722Z,97739.22
2022-08-24T08:01:42.301Z,97738.63
2022-08-24T08:04:11.639Z,97734.97
2022-08-24T08:06:39.629Z,97737.72
2022-08-24T08:09:07.572Z,97743.44
2022-08-24T08:11:35.573Z,97740.22
2022-08-24T08:14:03.544Z,97752.00
2022-08-24T08:16:31.586Z,97747.66
2022-08-24T08:19:15.046Z,97743.53
2022-08-24T08:22:01.834Z,97751.72
2022-08-24T08:24:30.268Z,97748.69
2022-08-24T08:26:59.375Z,97747.66
2022-08-24T08:29:27.827Z,97750.06
2022-08-24T08:31:56.037Z,97746.44
2022-08-24T08:34:24.541Z,97751.38
2022-08-24T08:36:54.313Z,97749.59
2022-08-24T08:39:22.849Z,97746.59
2022-08-24T08:42:23.168Z,97742.50
2022-08-24T08:45:12.293Z,97749.38
2022-08-24T08:48:21.720Z,97746.06
2022-08-24T08:51:23.599Z,97745.22
2022-08-24T08:54:12.783Z,97747.28
2022-08-24T08:56:45.639Z,97743.91
2022-08-24T08:59:18.032Z,97745.00
2022-08-24T09:01:48.988Z,97743.63
2022-08-24T09:04:39.686Z,97749.03
2022-08-24T09:07:17.300Z,97747.97
2022-08-24T09:10:24.008Z,97744.47
2022-08-24T09:13:02.932Z,97744.53
2022-08-24T09:15:40.306Z,97741.50
2022-08-24T09:18:15.639Z,97742.34
2022-08-24T09:20:57.455Z,97738.63
2022-08-24T09:23:30.498Z,97745.13
2022-08-24T09:26:03.236Z,97735.53
2022-08-24T09:28:41.377Z,97731.63
2022-08-24T09:34:11.263Z,97731.66
2022-08-24T09:36:52.753Z,97730.75
2022-08-24T09:39:37.523Z,97734.47
2022-08-24T09:42:27.586Z,97723.81
2022-08-24T09:45:14.287Z,97731.84
2022-08-24T09:48:03.685Z,97742.38
2022-08-24T09:50:44.419Z,97739.03
2022-08-24T09:53:53.717Z,97731.34
2022-08-24T09:57:09.337Z,97732.78
2022-08-24T10:00:08.502Z,97721.28
2022-08-24T10:02:48.141Z,97722.47
2022-08-24T10:05:25.109Z,97714.06
2022-08-24T10:07:57.457Z,97720.19
2022-08-24T10:10:31.806Z,97714.97
2022-08-24T10:13:05.519Z,97710.38
2022-08-24T10:15:37.557Z,97715.88
2022-08-24T10:18:18.192Z,97707.28
2022-08-24T10:21:13.963Z,97711.94
2022-08-24T10:24:08.849Z,97711.38
2022-08-24T10:26:41.696Z,97697.31
2022-08-24T10:29:34.245Z,97707.28
2022-08-24T10:32:19.805Z,97700.00
2022-08-24T10:34:55.769Z,97696.59
2022-08-24T10:38:37.000Z,97697.34
2022-08-24T10:41:34.166Z,97698.47
2022-08-24T10:44:36.051Z,97696.75
2022-08-24T10:47:09.969Z,97694.88
2022-08-24T10:50:13.452Z,97692.72
2022-08-24T10:53:03.190Z,97697.81
2022-08-24T10:55:36.243Z,97688.66
2022-08-24T10:58:49.868Z,97688.91
2022-08-24T11:01:28.770Z,97685.25
2022-08-24T11:04:01.496Z,97680.88
2022-08-24T11:06:32.014Z,97692.97
2022-08-24T11:09:06.219Z,97682.09
2022-08-24T11:11:40.693Z,97685.03
2022-08-24T11:14:10.870Z,97682.69
2022-08-24T11:16:42.047Z,97682.97
2022-08-24T11:19:14.792Z,97682.63
2022-08-24T11:21:46.246Z,97675.25
2022-08-24T11:24:30.474Z,97679.69
2022-08-24T11:27:02.205Z,97681.34
2022-08-24T11:29:31.914Z,97672.63
2022-08-24T11:32:08.101Z,97684.38
2022-08-24T11:34:40.378Z,97672.50
2022-08-24T11:37:12.160Z,97676.56
2022-08-24T11:39:50.669Z,97673.31
2022-08-24T11:42:44.026Z,97667.25
2022-08-24T11:45:15.575Z,97678.19
2022-08-24T11:47:50.357Z,97669.47
2022-08-24T11:50:27.116Z,97672.16
2022-08-24T11:53:00.910Z,97680.91
2022-08-24T11:55:45.347Z,97675.19
2022-08-24T11:58:31.863Z,97672.25
2022-08-24T12:01:01.962Z,97666.81
2022-08-24T12:03:40.357Z,97661.16
2022-08-24T12:06:15.199Z,97660.66
2022-08-24T12:08:46.012Z,97661.69
2022-08-24T12:11:23.630Z,97655.69
2022-08-24T12:13:56.004Z,97661.16
2022-08-24T12:16:26.616Z,97661.91
2022-08-24T12:18:57.001Z,97660.00
2022-08-24T12:21:28.080Z,97656.13
2022-08-24T12:23:59.157Z,97651.09
2022-08-24T12:26:29.593Z,97648.03
2022-08-24T12:29:04.179Z,97657.97
2022-08-24T12:31:39.254Z,97649.34
2022-08-24T12:34:10.233Z,97649.97
2022-08-24T12:36:43.358Z,97652.16
2022-08-24T12:39:13.546Z,97660.78
2022-08-24T12:41:47.826Z,97654.22
2022-08-24T12:44:17.587Z,97646.09
2022-08-24T12:46:47.827Z,97647.13
2022-08-24T12:49:19.651Z,97641.53
2022-08-24T12:52:00.522Z,97641.72
2022-08-24T12:54:42.945Z,97644.34
2022-08-24T12:57:25.412Z,97639.25
2022-08-24T12:59:54.298Z,97634.19
2022-08-24T13:02:32.461Z,97638.88
2022-08-24T13:05:01.824Z,97639.81
2022-08-24T13:07:32.347Z,97637.44
2022-08-24T13:10:10.470Z,97644.50
2022-08-24T13:12:57.206Z,97631.63
2022-08-24T13:15:54.312Z,97636.84
2022-08-24T13:18:50.881Z,97633.25
2022-08-24T13:21:39.867Z,97633.81
2022-08-24T13:24:51.404Z,97632.94
2022-08-24T13:27:49.012Z,97635.56
2022-08-24T13:30:24.153Z,97637.25
2022-08-24T13:32:59.002Z,97629.72
2022-08-24T13:35:36.828Z,97627.41
2022-08-24T13:38:29.414Z,97623.56
2022-08-24T13:41:05.375Z,97622.75
2022-08-24T13:43:36.820Z,97630.53
2022-08-24T13:46:17.893Z,97623.66
2022-08-24T13:48:51.938Z,97615.16
2022-08-24T13:51:51.462Z,97610.69
2022-08-24T13:54:26.134Z,97604.59
2022-08-24T13:57:06.383Z,97603.16
2022-08-24T13:59:54.613Z,97604.19
2022-08-24T14:02:31.308Z,97601.47
2022-08-24T14:05:03.422Z,97604.19
2022-08-24T14:07:32.768Z,97603.34
2022-08-24T14:10:07.733Z,97607.75
2022-08-24T14:12:56.374Z,97601.06
2022-08-24T14:15:27.989Z,97601.41
2022-08-24T14:18:14.866Z,97597.50
2022-08-24T14:20:56.605Z,97594.97
2022-08-24T14:23:36.665Z,97591.75
2022-08-24T14:26:42.131Z,97587.63
2022-08-24T14:29:40.590Z,97584.03
2022-08-24T14:32:44.630Z,97584.56
2022-08-24T14:35:40.969Z,97583.75
2022-08-24T14:38:27.544Z,97590.69
2022-08-24T14:41:20.773Z,97587.38
2022-08-24T14:44:07.401Z,97587.94
2022-08-24T14:46:39.507Z,97584.31
2022-08-24T14:49:17.754Z,97580.72
2022-08-24T14:51:54.650Z,97584.06
2022-08-24T14:54:27.538Z,97583.75
2022-08-24T14:57:05.165Z,97577.91
2022-08-24T14:59:42.109Z,97587.66
2022-08-24T15:02:38.962Z,97579.00
2022-08-24T15:05:14.251Z,97583.09
2022-08-24T15:07:42.282Z,97587.50
2022-08-24T15:10:14.828Z,97585.97
2022-08-24T15:12:44.826Z,97575.97
2022-08-24T15:15:15.371Z,97578.47
2022-08-24T15:17:50.265Z,97574.59
2022-08-24T15:20:21.514Z,97573.44
2022-08-24T15:22:53.313Z,97579.75
2022-08-24T15:25:29.996Z,97572.56
2022-08-24T15:28:08.690Z,97577.59
2022-08-24T15:30:38.067Z,97575.28
2022-08-24T15:33:09.691Z,97571.34
2022-08-24T15:35:40.762Z,97575.22
2022-08-24T15:38:19.421Z,97577.91
2022-08-24T15:40:47.474Z,97574.53
2022-08-24T15:43:15.450Z,97575.47
2022-08-24T15:45:45.900Z,97569.88
2022-08-24T15:48:13.892Z,97571.19
2022-08-24T15:50:44.175Z,97574.38
2022-08-24T15:53:29.478Z,97572.22
2022-08-24T15:55:59.623Z,97575.53
2022-08-24T15:58:33.205Z,97572.44
2022-08-24T16:01:36.587Z,97583.44
2022-08-24T16:04:05.580Z,97571.25
2022-08-24T16:06:42.454Z,97576.56
2022-08-24T16:09:14.733Z,97572.25
2022-08-24T16:11:45.697Z,97577.00
2022-08-24T16:14:15.322Z,97578.75
2022-08-24T16:16:45.778Z,97577.13
2022-08-24T16:19:24.336Z,97572.06
2022-08-24T16:21:56.102Z,97571.34
2022-08-24T16:24:29.999Z,97572.84
2022-08-24T16:27:05.173Z,97567.44
2022-08-24T16:29:55.757Z,97570.34
2022-08-24T16:32:33.711Z,97570.22
2022-08-24T16:35:17.517Z,97573.63
2022-08-24T16:37:46.832Z,97571.59
2022-08-24T16:40:14.763Z,97570.97
2022-08-24T16:42:43.424Z,97571.44
2022-08-24T16:45:12.474Z,97569.13
2022-08-24T16:47:40.685Z,97568.75
2022-08-24T16:50:09.251Z,97564.59
2022-08-24T16:52:37.111Z,97565.97
2022-08-24T16:55:07.473Z,97562.56
2022-08-24T16:57:37.578Z,97564.22
2022-08-24T17:00:07.804Z,97573.91
2022-08-24T17:02:38.124Z,97562.72
2022-08-24T17:05:07.227Z,97565.03
2022-08-24T17:07:35.192Z,97568.38
2022-08-24T17:10:04.361Z,97570.28
2022-08-24T17:12:36.170Z,97565.41
2022-08-24T17:15:04.807Z,97566.94
2022-08-24T17:17:33.150Z,97567.78
2022-08-24T17:20:01.121Z,97568.72
2022-08-24T17:22:31.300Z,97570.69
2022-08-24T17:24:59.643Z,97564.81
2022-08-24T17:27:30.106Z,97573.13
2022-08-24T17:29:59.607Z,97567.34
2022-08-24T17:32:28.000Z,97566.75
2022-08-24T17:34:55.937Z,97571.81
2022-08-24T17:37:23.980Z,97577.28
2022-08-24T17:39:53.005Z,97567.38
2022-08-24T17:42:49.072Z,97578.25
2022-08-24T17:45:13.083Z,97582.94
2022-08-24T17:47:41.578Z,97586.81
2022-08-24T17:50:10.360Z,97582.97
2022-08-24T17:52:38.281Z,97596.09
2022-08-24T17:55:09.665Z,97593.88
2022-08-24T17:57:37.574Z,97596.53
2022-08-24T18:00:08.097Z,97601.47
2022-08-24T18:02:37.376Z,97599.06
2022-08-24T18:05:05.686Z,97597.44
2022-08-24T18:07:49.983Z,97599.06
2022-08-24T18:10:23.855Z,97602.25
2022-08-24T18:12:51.835Z,97602.91
2022-08-24T18:15:19.801Z,97602.56
2022-08-24T18:17:51.556Z,97603.34
2022-08-24T18:20:23.578Z,97608.75
2022-08-24T18:22:52.780Z,97606.16
2022-08-24T18:25:22.972Z,97614.00
2022-08-24T18:27:52.097Z,97610.94
2022-08-24T18:30:22.629Z,97614.47
2022-08-24T18:32:54.630Z,97613.66
2022-08-24T18:35:24.438Z,97614.38
2022-08-24T18:37:52.404Z,97616.56
2022-08-24T18:40:21.524Z,97619.69
2022-08-24T18:42:50.894Z,97620.19
2022-08-24T18:45:18.925Z,97618.16
2022-08-24T18:47:53.321Z,97626.44
2022-08-24T18:50:24.174Z,97625.47
2022-08-24T18:52:52.306Z,97632.97
2022-08-24T18:55:27.046Z,97630.72
2022-08-24T18:57:55.101Z,97628.81
2022-08-24T19:00:23.062Z,97634.06
2022-08-24T19:02:50.949Z,97635.72
2022-08-24T19:05:22.727Z,97642.06
2022-08-24T19:07:53.449Z,97633.94
2022-08-24T19:10:22.841Z,97629.38
2022-08-24T19:13:00.034Z,97635.88
2022-08-24T19:15:32.027Z,97638.75
2022-08-24T19:18:09.797Z,97634.41
2022-08-24T19:20:39.298Z,97635.38
2022-08-24T19:23:10.040Z,97631.66
2022-08-24T19:25:39.730Z,97636.41
2022-08-24T19:28:08.821Z,97642.63
2022-08-24T19:30:36.763Z,97638.31
2022-08-24T19:33:08.159Z,97639.38
2022-08-24T19:35:38.696Z,97644.50
2022-08-24T19:38:08.196Z,97644.09
2022-08-24T19:40:39.017Z,97642.53
2022-08-24T19:43:08.490Z,97641.97
2022-08-24T19:45:54.820Z,97639.22
2022-08-24T19:48:24.592Z,97636.34
2022-08-24T19:50:53.294Z,97632.84
2022-08-24T19:53:22.774Z,97634.59
2022-08-24T19:55:50.765Z,97635.53
2022-08-24T19:58:23.630Z,97639.50
2022-08-24T20:00:57.103Z,97643.09
2022-08-24T20:03:28.115Z,97636.22
2022-08-24T20:05:56.047Z,97647.69
2022-08-24T20:08:25.400Z,97644.41
2022-08-24T20:10:58.772Z,97649.06
2022-08-24T20:13:26.674Z,97654.41
2022-08-24T20:15:58.564Z,97649.16
2022-08-24T20:18:30.084Z,97653.69
2022-08-24T20:20:58.137Z,97652.88
2022-08-24T20:23:29.495Z,97653.09
2022-08-24T20:25:57.749Z,97656.00
2022-08-24T20:28:29.048Z,97661.78
2022-08-24T20:31:00.112Z,97656.50
2022-08-24T20:33:28.740Z,97661.38
2022-08-24T20:35:56.851Z,97658.47
2022-08-24T20:38:25.314Z,97658.72
2022-08-24T20:40:58.968Z,97665.94
2022-08-24T20:43:27.009Z,97663.41
2022-08-24T20:45:55.553Z,97664.91
2022-08-24T20:48:27.232Z,97662.16
2022-08-24T20:50:55.443Z,97660.56
2022-08-24T20:53:24.773Z,97658.03
2022-08-24T20:55:52.746Z,97656.81
2022-08-24T20:58:22.701Z,97652.38
2022-08-24T21:00:50.747Z,97655.81
2022-08-24T21:03:19.270Z,97661.09
2022-08-24T21:05:47.294Z,97657.34
2022-08-24T21:08:15.290Z,97666.63
2022-08-24T21:10:43.520Z,97665.84
2022-08-24T21:13:11.752Z,97668.75
2022-08-24T21:15:41.511Z,97663.75
2022-08-24T21:18:10.861Z,97668.88
2022-08-24T21:20:54.711Z,97666.69
2022-08-24T21:23:29.671Z,97674.94
2022-08-24T21:25:57.567Z,97668.38
2022-08-24T21:28:26.106Z,97675.16
2022-08-24T21:30:55.449Z,97672.88
2022-08-24T21:33:46.341Z,97669.91
2022-08-24T21:36:15.525Z,97677.09
2022-08-24T21:38:45.424Z,97673.09
2022-08-24T21:41:14.362Z,97675.28
2022-08-24T21:43:42.332Z,97681.78
2022-08-24T21:46:11.632Z,97676.34
2022-08-24T21:48:40.314Z,97681.19
2022-08-24T21:51:08.996Z,97679.94
2022-08-24T21:53:37.770Z,97682.03
2022-08-24T21:56:06.089Z,97680.78
2022-08-24T21:58:34.067Z,97680.41
2022-08-24T22:01:03.340Z,97676.16
2022-08-24T22:03:39.866Z,97680.84
2022-08-24T22:06:08.890Z,97677.41
2022-08-24T22:08:37.460Z,97676.63
2022-08-24T22:11:05.436Z,97673.66
2022-08-24T22:13:34.224Z,97672.81
2022-08-24T22:16:03.208Z,97675.97
2022-08-24T22:18:32.705Z,97670.75
2022-08-24T22:21:01.306Z,97668.84
2022-08-24T22:23:29.347Z,97672.88
2022-08-24T22:25:57.241Z,97673.72
2022-08-24T22:28:25.620Z,97672.03
2022-08-24T22:30:53.638Z,97667.78
2022-08-24T22:33:22.111Z,97665.72
2022-08-24T22:35:51.877Z,97664.88
2022-08-24T22:38:20.099Z,97672.47
2022-08-24T22:40:48.099Z,97671.03
2022-08-24T22:43:16.375Z,97664.75
2022-08-24T22:45:44.344Z,97664.75
2022-08-24T22:48:12.477Z,97667.44
2022-08-24T22:50:43.824Z,97664.06
2022-08-24T22:53:13.371Z,97661.56
2022-08-24T22:55:41.381Z,97667.09
2022-08-24T22:58:09.259Z,97664.75
2022-08-24T23:00:39.933Z,97667.47
2022-08-24T23:03:07.827Z,97664.94
2022-08-24T23:05:35.740Z,97662.88
2022-08-24T23:08:05.591Z,97664.13
2022-08-24T23:10:40.765Z,97660.13
2022-08-24T23:13:09.505Z,97668.63
2022-08-24T23:15:37.791Z,97673.66
2022-08-24T23:18:26.896Z,97655.31
2022-08-24T23:20:54.223Z,97666.31
2022-08-24T23:23:22.188Z,97661.69
2022-08-24T23:25:51.468Z,97653.88
2022-08-24T23:28:19.942Z,97665.06
2022-08-24T23:30:47.902Z,97662.97
2022-08-24T23:33:15.858Z,97657.69
2022-08-24T23:35:44.059Z,97657.47
2022-08-24T23:38:12.861Z,97655.78
2022-08-24T23:40:42.294Z,97654.31
2022-08-24T23:43:12.456Z,97658.56
2022-08-24T23:45:40.625Z,97661.25
2022-08-24T23:48:08.881Z,97662.94
2022-08-24T23:50:36.786Z,97657.47
2022-08-24T23:53:04.704Z,97658.53
2022-08-24T23:55:32.608Z,97653.72
2022-08-24T23:58:01.028Z,97663.00
